Pulaski, IL (62976)

4:10 PM CST on February 07, 2016 (GMT -0600)
Cairo Regional | | Change Station
CLOSE
Current Station
Airport
Location: Cairo,
Elevation: 322 ft
Nearby Weather Stations
Active Advisory: Flood Warning

Elev 322 ft 37.06 °N, 89.22 °W | Updated 15 minutes ago

Partly Cloudy
Partly Cloudy
54 °F
Feels Like 54 °F
N
8
Wind Variable Wind from SW
Gusts 18 mph

Today
High -- | Low -- °F
--% Chance of Precip.
Yesterday
High -- | Low -- °F
Precip. -- in
Pressure 29.94 in
Visibility 10.0 miles
Clouds Clear
Dew Point 37 °F
Humidity 52%
Rainfall 0.00 in
Snow Depth Not available.
6:54 AM 5:27 PM
Waning Crescent, 1% visible
METAR KCIR 072155Z AUTO 22007G16KT 10SM CLR 12/03 A2994 RMK AO2 T01220026
Pressure 29.94 in
Visibility 10.0 miles
Clouds Clear
Dew Point 37 °F
Humidity 52%
Rainfall 0.00 in
Snow Depth Not available.
6:54 AM 5:27 PM
Waning Crescent, 1% visible
METAR KCIR 072155Z AUTO 22007G16KT 10SM CLR 12/03 A2994 RMK AO2 T01220026

10-Day Weather Forecast

Almanac

Astronomy

Feb. 07, 2016 Rise Set
Actual Time
Civil Twilight
Nautical Twilight
Astronomical Twilight
Moon
Length of Visible Light
Length of Day
Tomorrow will be .
, % of the Moon is Illuminated

Today's Extremes

State Highs State Lows

Community

WunderPhotos

Upload Photos

1,891,304 photos uploaded!

WunderBlog® & News

Nearby

Air Quality

  Air Quality AQ Index Pollutant
Not available.

Snow Depth

Station Depth Elevation

Earthquake Activity

City Distance Mag. Time & Date
Minimum magnitude displayed is 2.5.

Coastal Water Temperatures

Place Temperature

Stations

Nearby Weather Stations

Station Location Temp. Windchill Dew Point Humidity Wind Precip. Elev Updated Type
                   

Watches & Warnings

Flood Warning
Issued: 10:36 AM CST Feb. 7, 2016 – National Weather Service

The Flood Warning continues for
the Ohio River at Cairo.
* Until further notice.
* At 10:00 am Sunday the stage was 39.8 feet.
* Flood stage is 40.0 feet.
* Minor flooding is forecast.
* Forecast... rise above flood stage today and continue to
rise to near 41.5 feet by Tuesday morning.
* Impact... at 40.0 feet... minor flooding occurs affecting mainly
agricultural bottomland and low lying areas.


Lat... Lon 3709 8946 3651 8918 3680 8900 3709 8907
      3717 8916




1036 am CST sun Feb 7 2016

The Flood Warning continues for
the Ohio River at Grand Chain dam.
* From this afternoon until further notice.
* At 8:00 am Sunday the stage was 41.7 feet.
* Flood stage is 42.0 feet.
* Minor flooding is forecast.
* Forecast... rise above flood stage tonight and continue to rise
to near 43.5 feet by Tuesday morning.
* Impact... at 42.0 feet... this will cause minor flooding of mainly low
lying areas.


Lat... Lon 3727 8908 3717 8916 3709 8907 3714 8888
      3727 8884